createdAt,value
2019-05-23T00:03:15.517Z,54.50
2019-05-23T00:08:39.868Z,54.50
2019-05-23T00:13:49.943Z,54.50
2019-05-23T00:18:57.298Z,54.60
2019-05-23T00:24:02.936Z,54.80
2019-05-23T00:29:10.985Z,54.70
2019-05-23T00:34:18.200Z,54.70
2019-05-23T00:39:24.213Z,54.70
2019-05-23T00:44:30.522Z,54.80
2019-05-23T00:49:36.016Z,54.80
2019-05-23T00:54:42.341Z,54.80
2019-05-23T00:59:49.119Z,54.80
2019-05-23T01:04:55.968Z,54.70
2019-05-23T01:10:01.548Z,54.70
2019-05-23T01:15:08.507Z,54.80
2019-05-23T01:20:17.897Z,54.80
2019-05-23T01:25:24.647Z,54.80
2019-05-23T01:30:36.245Z,54.80
2019-05-23T01:35:42.750Z,54.80
2019-05-23T01:40:49.388Z,54.80
2019-05-23T01:45:54.812Z,54.70
2019-05-23T01:51:01.334Z,54.60
2019-05-23T01:56:08.967Z,54.60
2019-05-23T02:01:16.094Z,54.50
2019-05-23T02:06:21.940Z,54.60
2019-05-23T02:11:27.534Z,54.80
2019-05-23T02:16:33.273Z,54.70
2019-05-23T02:21:38.837Z,54.60
2019-05-23T02:26:44.453Z,54.70
2019-05-23T02:31:51.054Z,54.60
2019-05-23T02:36:58.347Z,54.40
2019-05-23T02:42:22.624Z,54.20
2019-05-23T02:47:38.906Z,54.00
2019-05-23T02:52:49.332Z,53.90
2019-05-23T02:57:56.921Z,53.70
2019-05-23T03:03:06.991Z,53.60
2019-05-23T03:08:14.517Z,53.80
2019-05-23T03:13:21.848Z,53.80
2019-05-23T03:18:34.060Z,53.80
2019-05-23T03:23:37.289Z,54.00
2019-05-23T03:28:42.742Z,54.10
2019-05-23T03:33:49.846Z,54.00
2019-05-23T03:38:55.522Z,54.10
2019-05-23T03:44:03.184Z,54.30
2019-05-23T03:49:11.267Z,54.20
2019-05-23T03:54:18.830Z,54.30
2019-05-23T03:59:27.293Z,54.10
2019-05-23T04:04:33.774Z,54.20
2019-05-23T04:09:39.303Z,54.30
2019-05-23T04:14:47.300Z,54.20
2019-05-23T04:19:53.245Z,54.20
2019-05-23T04:25:01.800Z,53.80
2019-05-23T04:30:07.852Z,53.60
2019-05-23T04:35:13.546Z,53.60
2019-05-23T04:40:19.685Z,53.60
2019-05-23T04:45:25.764Z,53.50
2019-05-23T04:50:32.097Z,53.30
2019-05-23T04:55:39.460Z,53.30
2019-05-23T05:00:44.914Z,53.10
2019-05-23T05:05:51.551Z,53.00
2019-05-23T05:10:57.929Z,52.90
2019-05-23T05:16:03.716Z,53.10
2019-05-23T05:21:09.605Z,53.80
2019-05-23T05:26:22.886Z,52.90
2019-05-23T05:31:28.511Z,52.80
2019-05-23T05:36:34.514Z,52.90
2019-05-23T05:41:41.325Z,53.10
2019-05-23T05:46:48.690Z,53.00
2019-05-23T05:51:54.444Z,52.80
2019-05-23T05:57:00.742Z,53.40
2019-05-23T06:02:09.365Z,53.20
2019-05-23T06:07:34.067Z,53.10
2019-05-23T06:12:40.573Z,52.80
2019-05-23T06:17:47.523Z,52.60
2019-05-23T06:22:53.491Z,52.70
2019-05-23T06:28:00.106Z,52.60
2019-05-23T06:33:21.750Z,52.50
2019-05-23T06:38:13.224Z,52.50
2019-05-23T06:43:20.325Z,53.10
2019-05-23T06:48:26.847Z,52.60
2019-05-23T06:53:32.497Z,52.80
2019-05-23T06:58:39.587Z,52.70
2019-05-23T07:03:45.177Z,52.50
2019-05-23T07:08:50.869Z,52.30
2019-05-23T07:13:56.436Z,52.30
2019-05-23T07:19:01.957Z,51.90
2019-05-23T07:24:07.852Z,52.30
2019-05-23T07:29:13.347Z,52.10
2019-05-23T07:34:21.177Z,52.20
2019-05-23T07:39:27.042Z,52.00
2019-05-23T07:44:47.374Z,51.70
2019-05-23T07:49:40.401Z,51.40
2019-05-23T07:54:54.443Z,51.20
2019-05-23T08:00:00.614Z,50.90
2019-05-23T08:05:08.934Z,51.10
2019-05-23T08:10:30.928Z,51.60
2019-05-23T08:15:21.728Z,51.20
2019-05-23T08:20:28.061Z,51.10
2019-05-23T08:25:34.164Z,51.20
2019-05-23T08:30:39.954Z,51.10
2019-05-23T08:35:46.182Z,51.00
2019-05-23T08:40:53.536Z,50.90
2019-05-23T08:45:59.197Z,51.00
2019-05-23T08:51:05.157Z,51.20
2019-05-23T08:56:18.726Z,51.20
2019-05-23T09:01:19.084Z,50.80
2019-05-23T09:06:26.620Z,51.10
2019-05-23T09:11:33.015Z,51.20
2019-05-23T09:16:39.529Z,50.90
2019-05-23T09:21:46.816Z,50.40
2019-05-23T09:26:53.320Z,50.20
2019-05-23T09:31:58.672Z,50.00
2019-05-23T09:37:05.170Z,50.20
2019-05-23T09:42:12.132Z,50.40
2019-05-23T09:47:18.693Z,50.10
2019-05-23T09:52:25.057Z,49.90
2019-05-23T09:57:31.047Z,49.50
2019-05-23T10:02:36.721Z,49.50
2019-05-23T10:07:42.587Z,49.40
2019-05-23T10:12:48.103Z,49.50
2019-05-23T10:17:53.678Z,49.30
2019-05-23T10:22:59.288Z,49.10
2019-05-23T10:28:06.281Z,49.10
2019-05-23T10:33:13.306Z,49.40
2019-05-23T10:38:19.427Z,48.90
2019-05-23T10:43:24.920Z,49.10
2019-05-23T10:48:31.066Z,49.70
2019-05-23T10:53:36.616Z,49.50
2019-05-23T10:58:42.227Z,49.10
2019-05-23T11:03:47.662Z,49.00
2019-05-23T11:08:53.472Z,49.00
2019-05-23T11:13:59.591Z,48.50
2019-05-23T11:19:06.577Z,48.50
2019-05-23T11:24:12.248Z,48.30
2019-05-23T11:29:18.024Z,48.30
2019-05-23T11:34:23.930Z,48.00
2019-05-23T11:39:29.581Z,48.30
2019-05-23T11:44:35.044Z,49.10
2019-05-23T11:49:41.511Z,48.50
2019-05-23T11:54:49.279Z,48.30
2019-05-23T11:59:54.837Z,48.10
2019-05-23T12:05:03.281Z,47.70
2019-05-23T12:10:11.109Z,47.40
2019-05-23T12:15:22.053Z,47.20
2019-05-23T12:20:27.696Z,46.80
2019-05-23T12:25:34.587Z,46.50
2019-05-23T12:30:40.069Z,46.10
2019-05-23T12:35:45.663Z,45.90
2019-05-23T12:40:51.655Z,45.90
2019-05-23T12:45:57.198Z,45.70
2019-05-23T12:51:03.927Z,45.70
2019-05-23T12:56:09.829Z,45.50
2019-05-23T13:01:16.980Z,45.30
2019-05-23T13:06:22.723Z,45.50
2019-05-23T13:11:28.938Z,45.60
2019-05-23T13:16:34.655Z,45.30
2019-05-23T13:21:40.342Z,45.00
2019-05-23T13:26:45.814Z,44.80
2019-05-23T13:31:51.354Z,44.80
2019-05-23T13:36:57.293Z,44.30
2019-05-23T13:42:03.417Z,44.10
2019-05-23T13:47:09.000Z,44.00
2019-05-23T13:52:14.715Z,44.20
2019-05-23T13:57:20.367Z,44.10
2019-05-23T14:02:25.844Z,44.20
2019-05-23T14:07:33.288Z,44.20
2019-05-23T14:12:39.259Z,44.20
2019-05-23T14:17:45.006Z,44.20
2019-05-23T14:22:58.413Z,44.10
2019-05-23T14:28:06.679Z,44.50
2019-05-23T14:33:23.586Z,44.40
2019-05-23T14:38:31.901Z,44.80
2019-05-23T14:43:37.678Z,44.20
2019-05-23T14:48:55.227Z,43.90
2019-05-23T14:54:06.485Z,44.00
2019-05-23T14:59:11.991Z,43.50
2019-05-23T15:04:17.793Z,43.30
2019-05-23T15:09:23.794Z,42.90
2019-05-23T15:14:29.341Z,42.50
2019-05-23T15:19:44.275Z,42.00
2019-05-23T15:24:42.303Z,42.00
2019-05-23T15:29:47.816Z,41.90
2019-05-23T15:34:53.365Z,41.60
2019-05-23T15:39:59.088Z,41.40
2019-05-23T15:45:05.476Z,41.20
2019-05-23T15:50:13.606Z,41.50
2019-05-23T15:55:29.332Z,41.60
2019-05-23T16:01:02.944Z,41.70
2019-05-23T16:06:11.526Z,41.70
2019-05-23T16:11:18.186Z,41.70
2019-05-23T16:16:24.198Z,42.00
2019-05-23T16:21:30.755Z,42.40
2019-05-23T16:26:36.581Z,42.90
2019-05-23T16:31:42.917Z,43.10
2019-05-23T16:36:48.543Z,43.30
2019-05-23T16:41:54.319Z,43.10
2019-05-23T16:47:00.027Z,41.50
2019-05-23T16:52:05.755Z,41.20
2019-05-23T16:57:30.084Z,40.50
2019-05-23T17:02:45.524Z,40.10
2019-05-23T17:08:15.207Z,40.00
2019-05-23T17:13:48.857Z,39.50
2019-05-23T17:19:02.870Z,39.20
2019-05-23T17:24:28.574Z,38.80
2019-05-23T17:29:46.668Z,39.30
2019-05-23T17:34:52.502Z,38.90
2019-05-23T17:39:59.656Z,38.40
2019-05-23T17:45:05.707Z,38.40
2019-05-23T17:50:12.451Z,38.30
2019-05-23T17:55:18.033Z,38.30
2019-05-23T18:00:27.204Z,38.30
2019-05-23T18:05:33.607Z,38.10
2019-05-23T18:10:45.291Z,38.20
2019-05-23T18:15:47.270Z,38.20
2019-05-23T18:20:53.045Z,38.10
2019-05-23T18:25:58.624Z,37.90
2019-05-23T18:31:15.182Z,38.10
2019-05-23T18:36:22.425Z,38.10
2019-05-23T18:41:28.980Z,38.30
2019-05-23T18:46:39.500Z,38.50
2019-05-23T18:51:45.340Z,38.60
2019-05-23T18:56:50.865Z,38.70
2019-05-23T19:01:56.763Z,38.70
2019-05-23T19:07:02.992Z,38.70
2019-05-23T19:12:09.937Z,38.60
2019-05-23T19:17:15.341Z,38.50
2019-05-23T19:22:22.380Z,38.50
2019-05-23T19:27:28.051Z,38.50
2019-05-23T19:32:33.899Z,38.30
2019-05-23T19:37:39.717Z,38.30
2019-05-23T19:42:45.306Z,38.20
2019-05-23T19:47:50.835Z,38.30
2019-05-23T19:52:56.414Z,38.30
2019-05-23T19:58:02.158Z,38.20
2019-05-23T20:03:09.643Z,38.20
2019-05-23T20:08:15.653Z,38.20
2019-05-23T20:13:22.442Z,38.30
2019-05-23T20:18:28.718Z,38.40
2019-05-23T20:23:35.735Z,38.40
2019-05-23T20:28:42.224Z,38.40
2019-05-23T20:33:48.445Z,38.40
2019-05-23T20:38:54.289Z,38.40
2019-05-23T20:44:00.009Z,38.40
2019-05-23T20:49:07.274Z,38.40
2019-05-23T20:54:13.928Z,38.50
2019-05-23T20:59:19.719Z,38.70
2019-05-23T21:04:25.738Z,38.60
2019-05-23T21:09:31.785Z,38.50
2019-05-23T21:14:37.671Z,38.60
2019-05-23T21:19:43.350Z,38.60
2019-05-23T21:24:50.350Z,38.60
2019-05-23T21:29:56.202Z,38.60
2019-05-23T21:35:02.182Z,38.70
2019-05-23T21:40:10.732Z,38.60
2019-05-23T21:45:16.822Z,38.60
2019-05-23T21:50:23.003Z,38.60
2019-05-23T21:55:38.886Z,38.60
2019-05-23T22:01:23.673Z,38.80
2019-05-23T22:06:31.446Z,38.70
2019-05-23T22:11:37.369Z,38.90
2019-05-23T22:16:43.124Z,38.90
2019-05-23T22:21:49.268Z,38.90
2019-05-23T22:26:55.211Z,38.80
2019-05-23T22:32:01.180Z,38.90
2019-05-23T22:37:20.165Z,38.90
2019-05-23T22:42:27.303Z,38.90
2019-05-23T22:47:34.636Z,38.90
2019-05-23T22:52:40.231Z,38.90
2019-05-23T22:57:48.226Z,38.90
2019-05-23T23:02:54.971Z,38.90
2019-05-23T23:08:01.182Z,39.00
2019-05-23T23:13:07.824Z,39.00
2019-05-23T23:18:15.047Z,39.00
2019-05-23T23:23:21.038Z,38.90
2019-05-23T23:28:27.013Z,39.00
2019-05-23T23:33:32.539Z,39.00
2019-05-23T23:38:38.338Z,39.10
2019-05-23T23:43:57.919Z,39.10
2019-05-23T23:49:09.141Z,39.30
2019-05-23T23:54:32.761Z,39.30
2019-05-23T23:59:37.373Z,39.40
